createdAt,value
2018-11-26T00:01:21.296Z,6.00
2018-11-26T00:03:49.196Z,6.00
2018-11-26T00:06:17.385Z,5.90
2018-11-26T00:08:45.857Z,5.80
2018-11-26T00:11:48.944Z,5.80
2018-11-26T00:14:17.457Z,5.80
2018-11-26T00:16:45.905Z,5.80
2018-11-26T00:19:13.410Z,5.80
2018-11-26T00:21:40.952Z,5.80
2018-11-26T00:24:09.105Z,5.80
2018-11-26T00:26:36.600Z,5.90
2018-11-26T00:29:05.063Z,5.80
2018-11-26T00:31:33.335Z,5.80
2018-11-26T00:34:01.385Z,5.80
2018-11-26T00:36:29.079Z,5.70
2018-11-26T00:38:56.595Z,5.70
2018-11-26T00:41:24.134Z,5.70
2018-11-26T00:43:51.649Z,5.70
2018-11-26T00:46:19.292Z,5.70
2018-11-26T00:48:47.012Z,5.60
2018-11-26T00:51:14.515Z,5.70
2018-11-26T00:53:42.745Z,5.60
2018-11-26T00:56:10.639Z,5.60
2018-11-26T00:58:40.137Z,5.60
2018-11-26T01:01:08.410Z,5.70
2018-11-26T01:03:36.688Z,5.60
2018-11-26T01:06:04.308Z,5.60
2018-11-26T01:08:32.844Z,5.60
2018-11-26T01:11:01.425Z,5.60
2018-11-26T01:13:29.288Z,5.60
2018-11-26T01:15:56.784Z,5.60
2018-11-26T01:18:24.919Z,5.60
2018-11-26T01:20:52.438Z,5.50
2018-11-26T01:23:20.031Z,5.50
2018-11-26T01:25:47.619Z,5.60
2018-11-26T01:28:15.120Z,5.60
2018-11-26T01:30:43.897Z,5.60
2018-11-26T01:33:12.074Z,5.60
2018-11-26T01:35:40.327Z,5.60
2018-11-26T01:38:07.849Z,5.60
2018-11-26T01:40:41.018Z,5.60
2018-11-26T01:43:08.552Z,5.60
2018-11-26T01:45:36.085Z,5.60
2018-11-26T01:48:04.290Z,5.60
2018-11-26T01:50:31.818Z,5.60
2018-11-26T01:52:59.348Z,5.60
2018-11-26T01:55:27.282Z,5.50
2018-11-26T01:57:55.292Z,5.50
2018-11-26T02:00:24.940Z,5.40
2018-11-26T02:02:53.292Z,5.50
2018-11-26T02:05:21.332Z,5.50
2018-11-26T02:07:49.740Z,5.50
2018-11-26T02:10:18.701Z,5.50
2018-11-26T02:12:46.863Z,5.50
2018-11-26T02:15:25.880Z,5.50
2018-11-26T02:17:53.408Z,5.50
2018-11-26T02:20:21.609Z,5.50
2018-11-26T02:22:49.308Z,5.50
2018-11-26T02:25:16.921Z,5.50
2018-11-26T02:27:44.425Z,5.60
2018-11-26T02:30:12.564Z,5.50
2018-11-26T02:32:41.009Z,5.50
2018-11-26T02:35:08.554Z,5.40
2018-11-26T02:37:36.094Z,5.40
2018-11-26T02:40:04.095Z,5.50
2018-11-26T02:42:31.604Z,5.50
2018-11-26T02:44:59.352Z,5.50
2018-11-26T02:47:27.249Z,5.50
2018-11-26T02:49:54.807Z,5.50
2018-11-26T02:52:22.332Z,5.50
2018-11-26T02:54:50.429Z,5.50
2018-11-26T02:57:18.356Z,5.50
2018-11-26T02:59:47.322Z,5.50
2018-11-26T03:02:15.604Z,5.50
2018-11-26T03:04:43.665Z,5.50
2018-11-26T03:07:11.301Z,5.50
2018-11-26T03:09:40.444Z,5.50
2018-11-26T03:12:07.961Z,5.40
2018-11-26T03:14:35.950Z,5.40
2018-11-26T03:17:04.468Z,5.40
2018-11-26T03:19:32.060Z,5.40
2018-11-26T03:22:00.140Z,5.40
2018-11-26T03:24:27.704Z,5.40
2018-11-26T03:26:55.188Z,5.40
2018-11-26T03:29:22.901Z,5.40
2018-11-26T03:31:52.513Z,5.40
2018-11-26T03:34:20.589Z,5.40
2018-11-26T03:36:48.204Z,5.40
2018-11-26T03:39:16.142Z,5.40
2018-11-26T03:41:43.745Z,5.50
2018-11-26T03:44:11.380Z,5.50
2018-11-26T03:46:39.153Z,5.50
2018-11-26T03:49:06.697Z,5.50
2018-11-26T03:51:34.345Z,5.50
2018-11-26T03:54:02.634Z,5.40
2018-11-26T03:56:30.716Z,5.40
2018-11-26T03:58:58.705Z,5.40
2018-11-26T04:01:27.308Z,5.40
2018-11-26T04:03:54.812Z,5.40
2018-11-26T04:06:22.425Z,5.50
2018-11-26T04:08:50.578Z,5.50
2018-11-26T04:11:18.385Z,5.50
2018-11-26T04:13:47.161Z,5.50
2018-11-26T04:16:14.688Z,5.50
2018-11-26T04:18:43.001Z,5.50
2018-11-26T04:21:10.580Z,5.50
2018-11-26T04:23:38.652Z,5.50
2018-11-26T04:26:06.260Z,5.50
2018-11-26T04:28:34.350Z,5.50
2018-11-26T04:31:03.189Z,5.60
2018-11-26T04:33:30.709Z,5.50
2018-11-26T04:35:58.235Z,5.50
2018-11-26T04:38:26.487Z,5.50
2018-11-26T04:40:54.642Z,5.60
2018-11-26T04:43:22.124Z,5.50
2018-11-26T04:45:49.628Z,5.50
2018-11-26T04:48:17.244Z,5.50
2018-11-26T04:50:45.427Z,5.50
2018-11-26T04:53:14.222Z,5.40
2018-11-26T04:55:42.302Z,5.40
2018-11-26T04:58:10.445Z,5.40
2018-11-26T05:00:39.479Z,5.40
2018-11-26T05:03:06.997Z,5.30
2018-11-26T05:05:34.528Z,5.40
2018-11-26T05:08:02.122Z,5.30
2018-11-26T05:10:30.848Z,5.30
2018-11-26T05:12:58.980Z,5.30
2018-11-26T05:15:27.104Z,5.20
2018-11-26T05:17:55.249Z,5.30
2018-11-26T05:20:22.763Z,5.20
2018-11-26T05:22:50.258Z,5.30
2018-11-26T05:25:17.881Z,5.30
2018-11-26T05:27:45.384Z,5.30
2018-11-26T05:30:14.237Z,5.30
2018-11-26T05:32:42.187Z,5.30
2018-11-26T05:35:10.748Z,5.30
2018-11-26T05:37:38.296Z,5.20
2018-11-26T05:40:09.886Z,5.30
2018-11-26T05:42:37.397Z,5.30
2018-11-26T05:45:07.804Z,5.20
2018-11-26T05:47:36.157Z,5.20
2018-11-26T05:50:06.348Z,5.30
2018-11-26T05:52:34.696Z,5.30
2018-11-26T05:55:02.961Z,5.20
2018-11-26T05:57:30.517Z,5.10
2018-11-26T05:59:58.721Z,5.00
2018-11-26T06:02:26.698Z,5.00
2018-11-26T06:04:54.320Z,4.90
2018-11-26T06:07:21.833Z,4.90
2018-11-26T06:09:49.697Z,4.80
2018-11-26T06:12:17.867Z,4.80
2018-11-26T06:14:45.726Z,4.70
2018-11-26T06:17:13.247Z,4.70
2018-11-26T06:19:40.778Z,4.60
2018-11-26T06:22:08.296Z,4.50
2018-11-26T06:24:35.787Z,4.50
2018-11-26T06:27:03.432Z,4.40
2018-11-26T06:29:31.232Z,4.30
2018-11-26T06:31:59.497Z,4.30
2018-11-26T06:34:27.045Z,4.30
2018-11-26T06:36:54.588Z,4.20
2018-11-26T06:39:22.156Z,4.20
2018-11-26T06:41:50.220Z,4.10
2018-11-26T06:44:17.736Z,4.10
2018-11-26T06:46:45.928Z,4.00
2018-11-26T06:49:14.100Z,4.00
2018-11-26T06:51:42.196Z,3.90
2018-11-26T06:54:10.484Z,3.90
2018-11-26T06:56:37.996Z,3.80
2018-11-26T06:59:06.309Z,3.70
2018-11-26T07:01:34.376Z,3.60
2018-11-26T07:04:01.898Z,3.50
2018-11-26T07:06:29.409Z,3.50
2018-11-26T07:08:56.984Z,3.40
2018-11-26T07:11:24.556Z,3.50
2018-11-26T07:13:53.516Z,3.40
2018-11-26T07:16:21.829Z,3.30
2018-11-26T07:18:49.324Z,3.30
2018-11-26T07:21:16.896Z,3.30
2018-11-26T07:23:44.486Z,3.20
2018-11-26T07:26:12.073Z,3.20
2018-11-26T07:28:39.768Z,3.20
2018-11-26T07:31:07.924Z,3.10
2018-11-26T07:33:35.428Z,3.00
2018-11-26T07:36:03.007Z,2.90
2018-11-26T07:38:30.609Z,2.80
2018-11-26T07:40:58.140Z,2.80
2018-11-26T07:43:26.054Z,2.70
2018-11-26T07:45:54.644Z,2.60
2018-11-26T07:48:22.648Z,2.50
2018-11-26T07:50:50.167Z,2.50
2018-11-26T07:53:18.948Z,2.40
2018-11-26T07:55:47.115Z,2.50
2018-11-26T07:58:14.632Z,2.40
2018-11-26T08:00:42.878Z,2.40
2018-11-26T08:03:10.513Z,2.40
2018-11-26T08:05:38.020Z,2.40
2018-11-26T08:08:05.593Z,2.30
2018-11-26T08:10:33.516Z,2.40
2018-11-26T08:13:02.054Z,2.30
2018-11-26T08:15:30.023Z,2.30
2018-11-26T08:17:57.515Z,2.30
2018-11-26T08:20:25.505Z,2.30
2018-11-26T08:22:53.737Z,2.20
2018-11-26T08:25:22.839Z,2.30
2018-11-26T08:27:51.800Z,2.30
2018-11-26T08:31:49.660Z,2.30
2018-11-26T08:34:17.551Z,2.40
2018-11-26T08:36:46.632Z,2.40
2018-11-26T08:39:19.144Z,2.40
2018-11-26T08:41:52.084Z,2.50
2018-11-26T08:44:28.254Z,2.40
2018-11-26T08:46:55.849Z,2.50
2018-11-26T08:49:26.084Z,2.50
2018-11-26T08:51:53.963Z,2.60
2018-11-26T08:54:23.202Z,2.60
2018-11-26T08:56:51.298Z,2.70
2018-11-26T08:59:19.379Z,2.70
2018-11-26T09:01:48.947Z,2.80
2018-11-26T09:04:20.254Z,2.70
2018-11-26T09:06:48.268Z,2.80
2018-11-26T09:09:15.802Z,2.80
2018-11-26T09:11:43.349Z,2.90
2018-11-26T09:14:11.466Z,2.90
2018-11-26T09:16:39.064Z,2.90
2018-11-26T09:19:06.636Z,2.90
2018-11-26T09:21:34.640Z,2.80
2018-11-26T09:24:02.226Z,2.90
2018-11-26T09:26:29.728Z,2.90
2018-11-26T09:28:57.414Z,2.80
2018-11-26T09:31:25.378Z,2.80
2018-11-26T09:33:53.608Z,2.80
2018-11-26T09:36:21.092Z,2.80
2018-11-26T09:38:49.503Z,2.90
2018-11-26T09:41:17.534Z,2.90
2018-11-26T09:43:46.603Z,2.80
2018-11-26T09:46:14.816Z,2.80
2018-11-26T09:48:42.327Z,2.80
2018-11-26T09:51:14.190Z,2.80
2018-11-26T09:53:38.772Z,2.90
2018-11-26T09:56:07.481Z,2.90
2018-11-26T09:58:34.993Z,2.90
2018-11-26T10:01:03.314Z,3.00
2018-11-26T10:03:30.847Z,3.00
2018-11-26T10:05:58.374Z,3.00
2018-11-26T10:08:25.940Z,3.00
2018-11-26T10:10:54.094Z,3.10
2018-11-26T10:13:22.145Z,3.10
2018-11-26T10:15:49.647Z,3.10
2018-11-26T10:18:17.184Z,3.00
2018-11-26T10:20:45.304Z,3.20
2018-11-26T10:23:13.180Z,3.30
2018-11-26T10:25:41.595Z,3.30
2018-11-26T10:28:10.731Z,3.40
2018-11-26T10:30:39.112Z,3.40
2018-11-26T10:33:14.425Z,3.40
2018-11-26T10:35:34.704Z,3.50
2018-11-26T10:38:03.030Z,3.60
2018-11-26T10:40:31.091Z,3.70
2018-11-26T10:42:58.616Z,3.70
2018-11-26T10:45:26.141Z,3.70
2018-11-26T10:47:53.666Z,3.80
2018-11-26T10:50:23.048Z,3.90
2018-11-26T10:52:56.596Z,3.90
2018-11-26T10:55:27.523Z,4.00
2018-11-26T10:57:56.061Z,4.10
2018-11-26T11:00:30.564Z,4.00
2018-11-26T11:02:58.174Z,3.90
2018-11-26T11:05:25.795Z,3.90
2018-11-26T11:07:53.988Z,4.00
2018-11-26T11:10:23.806Z,4.10
2018-11-26T11:12:52.349Z,4.20
2018-11-26T11:15:20.805Z,4.20
2018-11-26T11:17:48.300Z,4.20
2018-11-26T11:20:17.105Z,4.10
2018-11-26T11:22:46.103Z,4.10
2018-11-26T11:25:14.641Z,4.20
2018-11-26T11:27:42.291Z,4.20
2018-11-26T11:30:23.118Z,4.20
2018-11-26T11:32:51.817Z,4.20
2018-11-26T11:35:20.502Z,4.30
2018-11-26T11:37:49.528Z,4.30
2018-11-26T11:40:24.517Z,4.30
2018-11-26T11:42:52.937Z,4.40
2018-11-26T11:45:21.319Z,4.40
2018-11-26T11:47:48.921Z,4.40
2018-11-26T11:50:17.865Z,4.60
2018-11-26T11:52:45.797Z,4.50
2018-11-26T11:55:22.744Z,4.50
2018-11-26T11:57:50.893Z,4.50
2018-11-26T12:00:24.189Z,4.50
2018-11-26T12:02:52.376Z,4.50
2018-11-26T12:05:19.927Z,4.50
2018-11-26T12:07:48.097Z,4.60
2018-11-26T12:10:19.360Z,4.60
2018-11-26T12:12:47.256Z,4.50
2018-11-26T12:15:15.950Z,4.50
2018-11-26T12:17:44.541Z,4.40
2018-11-26T12:20:13.178Z,4.50
2018-11-26T12:22:41.327Z,4.40
2018-11-26T12:25:11.299Z,4.40
2018-11-26T12:27:38.874Z,4.30
2018-11-26T12:30:13.040Z,4.30
2018-11-26T12:32:41.783Z,4.10
2018-11-26T12:35:09.947Z,4.20
2018-11-26T12:37:38.229Z,4.20
2018-11-26T12:40:09.514Z,4.20
2018-11-26T12:42:37.061Z,4.20
2018-11-26T12:45:11.487Z,4.20
2018-11-26T12:47:39.535Z,4.10
2018-11-26T12:50:07.336Z,4.10
2018-11-26T12:52:34.919Z,4.00
2018-11-26T12:55:02.928Z,4.00
2018-11-26T12:57:30.519Z,3.90
2018-11-26T12:59:58.053Z,3.80
2018-11-26T13:02:26.270Z,3.80
2018-11-26T13:04:53.937Z,3.80
2018-11-26T13:07:22.926Z,3.80
2018-11-26T13:09:50.521Z,3.80
2018-11-26T13:12:18.745Z,3.70
2018-11-26T13:14:47.553Z,3.80
2018-11-26T13:17:15.641Z,3.80
2018-11-26T13:19:44.327Z,3.90
2018-11-26T13:22:12.214Z,3.90
2018-11-26T13:24:40.397Z,4.00
2018-11-26T13:27:09.281Z,4.00
2018-11-26T13:29:37.665Z,4.00
2018-11-26T13:32:06.886Z,4.00
2018-11-26T13:34:35.242Z,4.00
2018-11-26T13:37:03.817Z,3.80
2018-11-26T13:39:31.702Z,3.70
2018-11-26T13:41:59.342Z,3.60
2018-11-26T13:44:27.497Z,3.70
2018-11-26T13:46:55.049Z,3.70
2018-11-26T13:49:23.086Z,3.70
2018-11-26T13:51:51.168Z,3.50
2018-11-26T13:54:19.423Z,3.50
2018-11-26T13:56:46.947Z,3.60
2018-11-26T13:59:14.454Z,3.60
2018-11-26T14:01:42.435Z,3.70
2018-11-26T14:04:09.956Z,3.70
2018-11-26T14:06:37.825Z,3.70
2018-11-26T14:09:08.646Z,3.70
2018-11-26T14:11:36.494Z,3.70
2018-11-26T14:14:05.449Z,3.70
2018-11-26T14:16:34.390Z,3.70
2018-11-26T14:19:02.384Z,3.60
2018-11-26T14:21:29.898Z,3.60
2018-11-26T14:23:58.346Z,3.60
2018-11-26T14:26:27.394Z,3.50
2018-11-26T14:28:55.414Z,3.40
2018-11-26T14:31:23.838Z,3.40
2018-11-26T14:33:51.458Z,3.40
2018-11-26T14:36:19.801Z,3.30
2018-11-26T14:38:47.894Z,3.30
2018-11-26T14:41:15.394Z,3.20
2018-11-26T14:43:43.010Z,3.30
2018-11-26T14:46:10.775Z,3.30
2018-11-26T14:48:38.349Z,3.40
2018-11-26T14:51:06.480Z,3.30
2018-11-26T14:53:34.934Z,3.30
2018-11-26T14:56:03.095Z,3.40
2018-11-26T14:58:30.636Z,3.40
2018-11-26T15:00:58.924Z,3.40
2018-11-26T15:03:26.462Z,3.50
2018-11-26T15:05:53.978Z,3.50
2018-11-26T15:08:21.720Z,3.50
2018-11-26T15:10:49.232Z,3.40
2018-11-26T15:13:17.666Z,3.40
2018-11-26T15:15:45.850Z,3.40
2018-11-26T15:18:13.390Z,3.50
2018-11-26T15:20:41.567Z,3.50
2018-11-26T15:23:09.782Z,3.40
2018-11-26T15:25:38.154Z,3.40
2018-11-26T15:28:14.014Z,3.40
2018-11-26T15:30:41.598Z,3.30
2018-11-26T15:33:10.403Z,3.30
2018-11-26T15:35:37.913Z,3.30
2018-11-26T15:38:05.920Z,3.30
2018-11-26T15:40:33.654Z,3.30
2018-11-26T15:43:01.949Z,3.40
2018-11-26T15:45:30.627Z,3.40
2018-11-26T15:48:01.076Z,3.40
2018-11-26T15:50:29.311Z,3.40
2018-11-26T15:52:57.994Z,3.40
2018-11-26T15:55:26.017Z,3.30
2018-11-26T15:57:53.514Z,3.30
2018-11-26T16:00:23.430Z,3.30
2018-11-26T16:02:51.356Z,3.30
2018-11-26T16:05:23.394Z,3.40
2018-11-26T16:07:51.337Z,3.40
2018-11-26T16:10:19.494Z,3.40
2018-11-26T16:12:49.394Z,3.30
2018-11-26T16:15:20.241Z,3.30
2018-11-26T16:17:48.009Z,3.20
2018-11-26T16:20:19.369Z,3.20
2018-11-26T16:22:48.353Z,3.20
2018-11-26T16:25:19.177Z,3.20
2018-11-26T16:27:46.680Z,3.20
2018-11-26T16:30:16.081Z,3.20
2018-11-26T16:32:46.780Z,3.30
2018-11-26T16:35:15.797Z,3.30
2018-11-26T16:37:44.086Z,3.30
2018-11-26T16:40:15.557Z,3.30
2018-11-26T16:42:43.065Z,3.20
2018-11-26T16:45:13.843Z,3.20
2018-11-26T16:47:42.427Z,3.20
2018-11-26T16:50:11.628Z,3.10
2018-11-26T16:52:39.177Z,3.10
2018-11-26T16:55:16.606Z,3.10
2018-11-26T16:57:44.150Z,3.10
2018-11-26T17:00:14.058Z,3.10
2018-11-26T17:02:42.433Z,3.10
2018-11-26T17:05:11.779Z,3.10
2018-11-26T17:07:39.318Z,3.20
2018-11-26T17:10:07.959Z,3.20
2018-11-26T17:14:05.622Z,3.20
2018-11-26T17:16:33.727Z,3.20
2018-11-26T17:19:01.972Z,3.20
2018-11-26T17:21:30.084Z,3.20
2018-11-26T17:23:58.220Z,3.20
2018-11-26T17:26:25.738Z,3.30
2018-11-26T17:28:53.270Z,3.10
2018-11-26T17:31:22.580Z,3.20
2018-11-26T17:33:50.109Z,3.30
2018-11-26T17:36:17.630Z,3.20
2018-11-26T17:38:45.879Z,3.20
2018-11-26T17:41:13.422Z,3.30
2018-11-26T17:43:41.554Z,3.30
2018-11-26T17:46:09.067Z,3.30
2018-11-26T17:48:36.714Z,3.40
2018-11-26T17:51:05.462Z,3.40
2018-11-26T17:53:33.897Z,3.20
2018-11-26T17:56:01.999Z,3.30
2018-11-26T17:58:30.144Z,3.20
2018-11-26T18:01:07.849Z,3.10
2018-11-26T18:03:35.353Z,3.20
2018-11-26T18:06:03.626Z,3.20
2018-11-26T18:08:31.121Z,3.10
2018-11-26T18:10:58.636Z,3.00
2018-11-26T18:13:26.744Z,3.00
2018-11-26T18:15:55.207Z,3.00
2018-11-26T18:18:23.951Z,3.00
2018-11-26T18:20:51.288Z,2.90
2018-11-26T18:23:18.793Z,3.00
2018-11-26T18:25:46.679Z,3.10
2018-11-26T18:28:15.494Z,3.10
2018-11-26T18:30:48.001Z,3.20
2018-11-26T18:33:15.939Z,3.20
2018-11-26T18:35:44.209Z,3.20
2018-11-26T18:38:11.745Z,3.20
2018-11-26T18:40:40.881Z,3.20
2018-11-26T18:43:08.855Z,3.20
2018-11-26T18:45:37.894Z,3.20
2018-11-26T18:48:06.523Z,3.20
2018-11-26T18:50:34.114Z,3.20
2018-11-26T18:53:01.693Z,3.00
2018-11-26T18:55:29.954Z,3.00
2018-11-26T18:57:58.127Z,3.00
2018-11-26T19:00:28.638Z,2.90
2018-11-26T19:02:56.849Z,2.90
2018-11-26T19:05:24.968Z,2.90
2018-11-26T19:07:53.502Z,3.10
2018-11-26T19:10:24.067Z,3.00
2018-11-26T19:13:08.392Z,3.10
2018-11-26T19:15:38.489Z,3.10
2018-11-26T19:18:24.088Z,2.90
2018-11-26T19:20:52.797Z,2.90
2018-11-26T19:23:22.577Z,3.00
2018-11-26T19:25:51.694Z,2.90
2018-11-26T19:28:20.894Z,3.00
2018-11-26T19:30:49.793Z,3.10
2018-11-26T19:33:18.065Z,3.10
2018-11-26T19:35:46.243Z,3.10
2018-11-26T19:38:13.838Z,3.10
2018-11-26T19:40:41.419Z,3.00
2018-11-26T19:43:09.335Z,3.00
2018-11-26T19:45:37.399Z,3.00
2018-11-26T19:48:06.565Z,3.00
2018-11-26T19:50:34.321Z,3.10
2018-11-26T19:53:02.573Z,3.10
2018-11-26T19:55:30.848Z,3.10
2018-11-26T19:57:58.681Z,3.10
2018-11-26T20:00:29.072Z,3.10
2018-11-26T20:03:04.245Z,3.00
2018-11-26T20:05:39.641Z,3.00
2018-11-26T20:08:07.307Z,3.00
2018-11-26T20:10:34.992Z,3.00
2018-11-26T20:13:03.959Z,3.00
2018-11-26T20:15:32.115Z,3.00
2018-11-26T20:18:00.312Z,3.00
2018-11-26T20:20:27.857Z,3.00
2018-11-26T20:22:56.431Z,3.00
2018-11-26T20:25:24.737Z,3.00
2018-11-26T20:27:52.320Z,3.00
2018-11-26T20:30:21.013Z,3.00
2018-11-26T20:32:49.107Z,3.00
2018-11-26T20:35:16.794Z,2.90
2018-11-26T20:37:44.335Z,3.00
2018-11-26T20:40:15.127Z,3.00
2018-11-26T20:42:46.840Z,3.00
2018-11-26T20:45:16.146Z,3.00
2018-11-26T20:47:45.697Z,3.00
2018-11-26T20:50:17.157Z,3.00
2018-11-26T20:52:45.756Z,3.00
2018-11-26T20:55:16.419Z,2.90
2018-11-26T20:57:44.020Z,2.80
2018-11-26T21:00:15.099Z,2.90
2018-11-26T21:02:44.618Z,2.80
2018-11-26T21:05:13.826Z,2.70
2018-11-26T21:07:41.449Z,2.70
2018-11-26T21:10:11.870Z,2.80
2018-11-26T21:12:40.217Z,2.90
2018-11-26T21:15:10.355Z,2.90
2018-11-26T21:17:38.403Z,3.00
2018-11-26T21:20:10.111Z,3.00
2018-11-26T21:22:38.640Z,3.00
2018-11-26T21:25:09.394Z,2.90
2018-11-26T21:27:38.041Z,3.00
2018-11-26T21:30:10.953Z,3.00
2018-11-26T21:32:39.577Z,3.00
2018-11-26T21:35:09.139Z,3.10
2018-11-26T21:37:37.286Z,3.00
2018-11-26T21:40:07.650Z,3.10
2018-11-26T21:42:36.285Z,3.10
2018-11-26T21:45:06.113Z,3.10
2018-11-26T21:47:34.661Z,3.20
2018-11-26T21:50:02.273Z,3.10
2018-11-26T21:52:29.865Z,3.10
2018-11-26T21:54:58.503Z,3.10
2018-11-26T21:57:27.375Z,3.00
2018-11-26T21:59:55.025Z,3.00
2018-11-26T22:02:23.442Z,3.00
2018-11-26T22:04:51.065Z,3.00
2018-11-26T22:07:19.602Z,3.00
2018-11-26T22:09:47.939Z,3.00
2018-11-26T22:12:16.225Z,3.00
2018-11-26T22:14:44.544Z,3.00
2018-11-26T22:17:12.109Z,3.00
2018-11-26T22:19:39.873Z,3.00
2018-11-26T22:22:08.126Z,3.10
2018-11-26T22:24:35.791Z,3.10
2018-11-26T22:27:04.801Z,3.10
2018-11-26T22:29:32.472Z,3.10
2018-11-26T22:32:00.624Z,3.10
2018-11-26T22:34:28.161Z,3.00
2018-11-26T22:36:55.789Z,2.90
2018-11-26T22:39:23.431Z,2.90
2018-11-26T22:41:51.287Z,2.90
2018-11-26T22:44:19.546Z,2.80
2018-11-26T22:46:47.067Z,2.80
2018-11-26T22:49:14.760Z,2.80
2018-11-26T22:51:42.294Z,2.90
2018-11-26T22:54:10.613Z,2.90
2018-11-26T22:56:39.150Z,2.90
2018-11-26T22:59:06.655Z,2.90
2018-11-26T23:01:35.186Z,2.90
2018-11-26T23:04:02.298Z,2.80
2018-11-26T23:06:30.760Z,2.80
2018-11-26T23:08:59.298Z,2.90
2018-11-26T23:11:27.513Z,2.90
2018-11-26T23:13:55.360Z,2.90
2018-11-26T23:16:23.416Z,2.90
2018-11-26T23:18:50.955Z,2.80
2018-11-26T23:21:19.496Z,2.80
2018-11-26T23:23:46.997Z,2.80
2018-11-26T23:26:14.499Z,2.80
2018-11-26T23:28:42.032Z,2.80
2018-11-26T23:31:10.789Z,2.90
2018-11-26T23:33:39.647Z,2.80
2018-11-26T23:36:07.161Z,2.90
2018-11-26T23:38:34.696Z,2.90
2018-11-26T23:41:02.469Z,2.90
2018-11-26T23:43:30.547Z,2.80
2018-11-26T23:45:58.210Z,2.90
2018-11-26T23:48:26.424Z,2.90
2018-11-26T23:50:53.955Z,2.90
2018-11-26T23:53:22.329Z,2.90
2018-11-26T23:55:49.840Z,3.00
2018-11-26T23:58:19.104Z,3.00
